createdAt,value
2022-10-19T00:01:33.088Z,8.41
2022-10-19T00:04:04.830Z,8.25
2022-10-19T00:06:38.768Z,8.35
2022-10-19T00:09:09.957Z,8.31
2022-10-19T00:11:41.614Z,8.22
2022-10-19T00:14:14.122Z,8.35
2022-10-19T00:16:44.094Z,8.31
2022-10-19T00:19:16.733Z,8.26
2022-10-19T00:21:47.048Z,8.25
2022-10-19T00:24:15.919Z,8.30
2022-10-19T00:26:44.955Z,7.79
2022-10-19T00:29:14.872Z,7.47
2022-10-19T00:31:44.241Z,7.10
2022-10-19T00:34:13.134Z,7.14
2022-10-19T00:36:42.414Z,7.18
2022-10-19T00:39:15.520Z,7.11
2022-10-19T00:41:45.327Z,7.30
2022-10-19T00:44:51.337Z,7.19
2022-10-19T00:47:24.386Z,7.17
2022-10-19T00:49:54.181Z,7.21
2022-10-19T00:52:26.040Z,7.38
2022-10-19T00:54:57.587Z,7.39
2022-10-19T00:57:30.737Z,7.42
2022-10-19T01:00:01.639Z,7.49
2022-10-19T01:02:30.705Z,7.52
2022-10-19T01:05:00.566Z,7.46
2022-10-19T01:07:29.760Z,7.15
2022-10-19T01:10:02.064Z,7.45
2022-10-19T01:13:00.018Z,7.56
2022-10-19T01:15:39.049Z,7.38
2022-10-19T01:18:17.187Z,7.22
2022-10-19T01:21:21.744Z,7.39
2022-10-19T01:24:27.865Z,7.44
2022-10-19T01:27:43.025Z,7.28
2022-10-19T01:30:23.619Z,7.22
2022-10-19T01:33:15.936Z,6.78
2022-10-19T01:35:52.283Z,6.62
2022-10-19T01:38:31.856Z,6.54
2022-10-19T01:41:10.395Z,6.73
2022-10-19T01:43:44.759Z,6.71
2022-10-19T01:46:20.846Z,6.73
2022-10-19T01:48:56.175Z,6.92
2022-10-19T01:51:30.336Z,7.03
2022-10-19T01:54:03.879Z,6.87
2022-10-19T01:56:34.614Z,6.92
2022-10-19T01:59:08.542Z,6.88
2022-10-19T02:01:42.711Z,6.76
2022-10-19T02:04:14.236Z,6.81
2022-10-19T02:06:43.362Z,6.90
2022-10-19T02:09:18.020Z,6.88
2022-10-19T02:11:53.365Z,6.78
2022-10-19T02:14:30.395Z,6.57
2022-10-19T02:17:04.163Z,6.80
2022-10-19T02:19:33.015Z,6.83
2022-10-19T02:22:02.040Z,6.74
2022-10-19T02:24:30.813Z,6.98
2022-10-19T02:27:01.795Z,7.01
2022-10-19T02:29:30.636Z,6.95
2022-10-19T02:32:00.997Z,6.80
2022-10-19T02:34:30.592Z,6.49
2022-10-19T02:37:00.042Z,6.75
2022-10-19T02:39:29.847Z,6.84
2022-10-19T02:42:05.391Z,6.67
2022-10-19T02:44:40.479Z,6.50
2022-10-19T02:47:12.889Z,6.59
2022-10-19T02:49:43.605Z,6.51
2022-10-19T02:52:13.945Z,6.46
2022-10-19T02:54:45.169Z,6.31
2022-10-19T02:57:18.303Z,5.88
2022-10-19T02:59:47.232Z,6.18
2022-10-19T03:02:18.968Z,6.26
2022-10-19T03:04:48.569Z,6.38
2022-10-19T03:07:19.277Z,6.36
2022-10-19T03:09:48.054Z,6.44
2022-10-19T03:12:17.134Z,6.28
2022-10-19T03:14:46.039Z,6.27
2022-10-19T03:17:14.914Z,6.29
2022-10-19T03:19:45.217Z,6.31
2022-10-19T03:22:14.487Z,6.37
2022-10-19T03:24:43.423Z,6.34
2022-10-19T03:27:12.212Z,6.28
2022-10-19T03:29:41.051Z,6.38
2022-10-19T03:32:09.885Z,6.18
2022-10-19T03:34:38.855Z,6.28
2022-10-19T03:37:09.170Z,6.30
2022-10-19T03:39:37.984Z,6.34
2022-10-19T03:42:06.847Z,6.31
2022-10-19T03:44:35.737Z,6.10
2022-10-19T03:47:04.583Z,6.16
2022-10-19T03:49:34.682Z,6.16
2022-10-19T03:52:05.973Z,5.94
2022-10-19T03:54:36.196Z,5.88
2022-10-19T03:57:05.104Z,5.92
2022-10-19T03:59:33.928Z,5.73
2022-10-19T04:02:03.289Z,5.74
2022-10-19T04:04:32.185Z,5.75
2022-10-19T04:07:01.956Z,5.58
2022-10-19T04:09:30.836Z,5.64
2022-10-19T04:12:01.029Z,5.71
2022-10-19T04:14:33.083Z,5.53
2022-10-19T04:17:07.922Z,5.56
2022-10-19T04:19:36.753Z,5.62
2022-10-19T04:22:05.551Z,5.44
2022-10-19T04:24:34.364Z,5.32
2022-10-19T04:27:05.305Z,5.43
2022-10-19T04:29:34.119Z,5.31
2022-10-19T04:32:02.953Z,5.45
2022-10-19T04:34:33.318Z,5.43
2022-10-19T04:37:04.142Z,5.49
2022-10-19T04:39:33.440Z,5.62
2022-10-19T04:42:02.263Z,5.44
2022-10-19T04:44:32.484Z,5.45
2022-10-19T04:47:01.990Z,5.33
2022-10-19T04:49:30.828Z,5.48
2022-10-19T04:51:59.797Z,5.49
2022-10-19T04:54:28.583Z,5.54
2022-10-19T04:56:57.453Z,5.57
2022-10-19T04:59:26.309Z,5.65
2022-10-19T05:01:56.569Z,5.72
2022-10-19T05:04:25.366Z,5.46
2022-10-19T05:06:54.212Z,5.67
2022-10-19T05:09:23.078Z,5.73
2022-10-19T05:11:52.045Z,5.55
2022-10-19T05:14:20.861Z,5.70
2022-10-19T05:16:49.752Z,5.49
2022-10-19T05:19:20.197Z,5.84
2022-10-19T05:21:49.031Z,6.01
2022-10-19T05:24:17.876Z,6.31
2022-10-19T05:26:46.651Z,6.60
2022-10-19T05:29:15.798Z,6.77
2022-10-19T05:31:44.793Z,7.01
2022-10-19T05:34:13.632Z,7.05
2022-10-19T05:36:43.999Z,6.90
2022-10-19T05:39:16.141Z,7.07
2022-10-19T05:41:45.630Z,7.23
2022-10-19T05:44:16.941Z,6.70
2022-10-19T05:46:46.179Z,7.05
2022-10-19T05:49:15.907Z,7.02
2022-10-19T05:51:46.428Z,7.31
2022-10-19T05:54:16.067Z,8.11
2022-10-19T05:56:45.353Z,8.38
2022-10-19T05:59:17.298Z,8.34
2022-10-19T06:01:46.890Z,7.84
2022-10-19T06:06:47.255Z,7.71
2022-10-19T06:09:16.132Z,8.26
2022-10-19T06:11:45.229Z,8.53
2022-10-19T06:14:15.992Z,9.08
2022-10-19T06:16:46.262Z,9.40
2022-10-19T06:19:15.338Z,9.36
2022-10-19T06:21:46.800Z,9.81
2022-10-19T06:24:15.977Z,10.12
2022-10-19T06:26:44.801Z,10.43
2022-10-19T06:29:13.639Z,10.35
2022-10-19T06:31:42.432Z,10.51
2022-10-19T06:34:11.287Z,10.16
2022-10-19T06:36:40.209Z,9.98
2022-10-19T06:39:10.391Z,10.05
2022-10-19T06:41:39.226Z,10.22
2022-10-19T06:44:20.801Z,10.63
2022-10-19T06:46:49.707Z,9.72
2022-10-19T06:49:18.576Z,10.65
2022-10-19T06:51:47.477Z,10.72
2022-10-19T06:54:17.734Z,10.94
2022-10-19T06:56:46.630Z,11.13
2022-10-19T06:59:17.675Z,11.91
2022-10-19T07:01:46.627Z,12.57
2022-10-19T07:04:15.510Z,12.85
2022-10-19T07:06:44.358Z,13.89
2022-10-19T07:09:13.169Z,14.90
2022-10-19T07:11:46.179Z,14.59
2022-10-19T07:14:15.752Z,14.09
2022-10-19T07:16:44.593Z,14.43
2022-10-19T07:19:13.813Z,13.86
2022-10-19T07:21:43.930Z,14.29
2022-10-19T07:24:12.776Z,14.20
2022-10-19T07:26:43.584Z,14.65
2022-10-19T07:29:12.387Z,15.21
2022-10-19T07:31:41.563Z,15.07
2022-10-19T07:34:13.354Z,15.73
2022-10-19T07:36:45.472Z,16.73
2022-10-19T07:39:14.942Z,17.34
2022-10-19T07:41:45.560Z,18.03
2022-10-19T07:44:16.856Z,18.35
2022-10-19T07:46:46.260Z,19.09
2022-10-19T07:49:19.070Z,17.40
2022-10-19T07:51:48.099Z,18.29
2022-10-19T07:54:16.877Z,19.46
2022-10-19T07:56:47.137Z,19.00
2022-10-19T07:59:17.341Z,19.41
2022-10-19T08:01:47.652Z,18.40
2022-10-19T08:07:06.956Z,17.32
2022-10-19T08:12:26.029Z,17.39
2022-10-19T08:14:55.193Z,17.79
2022-10-19T08:17:24.165Z,17.56
2022-10-19T08:19:53.069Z,18.66
2022-10-19T08:22:21.894Z,18.86
2022-10-19T08:24:50.752Z,18.12
2022-10-19T08:27:19.659Z,17.67
2022-10-19T08:29:50.036Z,19.47
2022-10-19T08:32:19.244Z,18.54
2022-10-19T08:34:48.085Z,19.08
2022-10-19T08:37:26.433Z,20.16
2022-10-19T08:40:06.977Z,21.26
2022-10-19T08:42:47.930Z,21.86
2022-10-19T08:45:33.785Z,21.04
2022-10-19T08:48:20.384Z,21.06
2022-10-19T08:50:49.886Z,21.77
2022-10-19T08:53:23.370Z,22.10
2022-10-19T08:56:06.617Z,20.15
2022-10-19T08:58:50.743Z,20.72
2022-10-19T09:01:37.553Z,20.77
2022-10-19T09:04:11.321Z,20.27
2022-10-19T09:06:50.802Z,21.31
2022-10-19T09:09:21.643Z,21.73
2022-10-19T09:11:52.260Z,21.06
2022-10-19T09:14:29.154Z,20.96
2022-10-19T09:17:03.671Z,22.58
2022-10-19T09:19:32.672Z,22.47
2022-10-19T09:22:05.467Z,20.93
2022-10-19T09:24:43.024Z,23.03
2022-10-19T09:27:21.255Z,23.69
2022-10-19T09:29:54.886Z,22.19
2022-10-19T09:32:29.701Z,22.06
2022-10-19T09:35:02.393Z,22.57
2022-10-19T09:37:33.143Z,22.90
2022-10-19T09:40:02.321Z,23.67
2022-10-19T09:42:34.692Z,24.17
2022-10-19T09:45:15.919Z,23.71
2022-10-19T09:47:49.445Z,23.70
2022-10-19T09:50:21.297Z,24.32
2022-10-19T09:52:50.956Z,23.81
2022-10-19T09:55:27.557Z,25.12
2022-10-19T09:58:03.313Z,25.18
2022-10-19T10:00:42.373Z,26.48
2022-10-19T10:03:25.651Z,26.45
2022-10-19T10:05:56.610Z,27.01
2022-10-19T10:08:28.555Z,25.26
2022-10-19T10:11:07.022Z,23.08
2022-10-19T10:13:41.113Z,21.64
2022-10-19T10:16:12.431Z,21.31
2022-10-19T10:18:54.966Z,22.90
2022-10-19T10:21:26.239Z,21.60
2022-10-19T10:24:05.585Z,21.93
2022-10-19T10:26:40.932Z,21.26
2022-10-19T10:29:20.831Z,22.20
2022-10-19T10:31:52.278Z,21.89
2022-10-19T10:34:45.353Z,22.12
2022-10-19T10:37:21.871Z,23.47
2022-10-19T10:39:53.678Z,23.54
2022-10-19T10:42:30.498Z,23.56
2022-10-19T10:45:00.788Z,24.38
2022-10-19T10:47:30.618Z,24.29
2022-10-19T10:50:03.951Z,23.92
2022-10-19T10:52:33.267Z,23.92
2022-10-19T10:55:04.564Z,24.18
2022-10-19T10:57:37.936Z,23.64
2022-10-19T11:00:13.593Z,23.58
2022-10-19T11:02:49.214Z,23.98
2022-10-19T11:05:26.611Z,24.55
2022-10-19T11:08:02.402Z,25.29
2022-10-19T11:10:35.030Z,25.23
2022-10-19T11:13:11.811Z,24.92
2022-10-19T11:15:51.707Z,25.30
2022-10-19T11:18:25.477Z,25.95
2022-10-19T11:21:03.176Z,25.33
2022-10-19T11:23:43.184Z,25.50
2022-10-19T11:26:34.776Z,25.16
2022-10-19T11:29:16.669Z,24.78
2022-10-19T11:31:49.280Z,25.72
2022-10-19T11:34:37.079Z,26.08
2022-10-19T11:37:20.362Z,25.66
2022-10-19T11:40:00.727Z,26.69
2022-10-19T11:42:43.484Z,26.75
2022-10-19T11:45:23.912Z,26.87
2022-10-19T11:48:15.457Z,26.48
2022-10-19T11:50:58.616Z,25.74
2022-10-19T11:53:44.366Z,24.34
2022-10-19T11:56:20.880Z,24.73
2022-10-19T11:58:59.413Z,25.57
2022-10-19T12:01:43.887Z,26.81
2022-10-19T12:04:40.980Z,28.20
2022-10-19T12:07:27.343Z,28.26
2022-10-19T12:10:08.491Z,27.07
2022-10-19T12:12:39.909Z,27.44
2022-10-19T12:15:22.656Z,28.59
2022-10-19T12:17:55.216Z,29.14
2022-10-19T12:20:31.273Z,29.78
2022-10-19T12:23:03.302Z,29.71
2022-10-19T12:25:34.565Z,29.34
2022-10-19T12:28:05.084Z,29.98
2022-10-19T12:30:34.190Z,29.43
2022-10-19T12:33:10.640Z,29.26
2022-10-19T12:36:03.316Z,28.18
2022-10-19T12:38:45.975Z,26.89
2022-10-19T12:41:26.620Z,28.32
2022-10-19T12:44:07.147Z,28.44
2022-10-19T12:46:41.253Z,28.98
2022-10-19T12:49:51.588Z,28.81
2022-10-19T12:52:38.251Z,29.00
2022-10-19T12:55:29.809Z,29.12
2022-10-19T12:58:04.000Z,29.24
2022-10-19T13:00:35.074Z,28.98
2022-10-19T13:03:08.234Z,28.40
2022-10-19T13:05:37.735Z,28.59
2022-10-19T13:08:10.844Z,28.78
2022-10-19T13:10:42.648Z,27.77
2022-10-19T13:13:44.873Z,28.44
2022-10-19T13:16:58.910Z,28.75
2022-10-19T13:19:28.433Z,28.47
2022-10-19T13:22:29.963Z,27.42
2022-10-19T13:25:23.687Z,27.63
2022-10-19T13:27:53.640Z,28.26
2022-10-19T13:31:07.023Z,28.51
2022-10-19T13:33:53.588Z,28.89
2022-10-19T13:36:23.666Z,28.99
2022-10-19T13:39:16.889Z,28.73
2022-10-19T13:41:52.674Z,26.87
2022-10-19T13:44:25.158Z,26.56
2022-10-19T13:47:05.551Z,25.17
2022-10-19T13:53:12.315Z,26.83
2022-10-19T13:56:04.041Z,27.95
2022-10-19T13:58:57.634Z,28.21
2022-10-19T14:01:39.643Z,28.02
2022-10-19T14:04:20.834Z,28.25
2022-10-19T14:06:54.752Z,28.08
2022-10-19T14:10:00.095Z,27.89
2022-10-19T14:12:35.158Z,27.91
2022-10-19T14:15:20.835Z,26.76
2022-10-19T14:17:49.477Z,27.34
2022-10-19T14:20:29.323Z,28.11
2022-10-19T14:22:58.538Z,27.96
2022-10-19T14:25:29.816Z,25.99
2022-10-19T14:28:05.857Z,27.14
2022-10-19T14:30:36.832Z,27.24
2022-10-19T14:33:10.595Z,26.87
2022-10-19T14:35:43.514Z,26.66
2022-10-19T14:38:19.952Z,27.00
2022-10-19T14:40:49.089Z,26.76
2022-10-19T14:43:24.405Z,25.89
2022-10-19T14:46:20.347Z,25.01
2022-10-19T14:48:51.656Z,25.36
2022-10-19T14:51:31.542Z,25.50
2022-10-19T14:54:04.695Z,24.80
2022-10-19T14:56:39.576Z,24.03
2022-10-19T14:59:25.305Z,24.38
2022-10-19T15:01:54.879Z,24.56
2022-10-19T15:04:26.998Z,24.59
2022-10-19T15:06:56.818Z,24.23
2022-10-19T15:09:37.531Z,23.77
2022-10-19T15:12:10.561Z,23.48
2022-10-19T15:14:41.409Z,23.41
2022-10-19T15:17:24.627Z,23.25
2022-10-19T15:19:55.740Z,22.83
2022-10-19T15:22:38.122Z,22.61
2022-10-19T15:25:27.225Z,22.70
2022-10-19T15:27:57.636Z,22.58
2022-10-19T15:30:30.322Z,22.62
2022-10-19T15:33:14.237Z,22.50
2022-10-19T15:35:45.885Z,22.48
2022-10-19T15:38:22.122Z,22.30
2022-10-19T15:40:58.020Z,22.15
2022-10-19T15:43:45.110Z,22.20
2022-10-19T15:46:31.768Z,21.35
2022-10-19T15:49:25.486Z,21.08
2022-10-19T15:51:54.491Z,20.94
2022-10-19T15:54:24.041Z,21.17
2022-10-19T15:56:54.402Z,20.74
2022-10-19T15:59:23.897Z,20.61
2022-10-19T16:01:56.107Z,20.47
2022-10-19T16:04:25.228Z,20.57
2022-10-19T16:06:54.115Z,20.64
2022-10-19T16:09:23.137Z,20.40
2022-10-19T16:11:56.758Z,19.85
2022-10-19T16:14:26.570Z,20.07
2022-10-19T16:17:00.435Z,20.69
2022-10-19T16:19:30.548Z,20.60
2022-10-19T16:21:59.464Z,20.67
2022-10-19T16:24:28.279Z,20.52
2022-10-19T16:26:57.072Z,20.66
2022-10-19T16:29:28.904Z,20.56
2022-10-19T16:31:59.625Z,19.93
2022-10-19T16:34:28.590Z,20.05
2022-10-19T16:36:57.546Z,20.04
2022-10-19T16:39:26.829Z,20.09
2022-10-19T16:41:55.707Z,20.18
2022-10-19T16:44:24.507Z,20.18
2022-10-19T16:46:53.341Z,20.04
2022-10-19T16:49:23.791Z,19.33
2022-10-19T16:51:54.885Z,19.35
2022-10-19T16:54:27.334Z,19.62
2022-10-19T16:56:56.602Z,19.94
2022-10-19T16:59:25.478Z,20.56
2022-10-19T17:01:54.440Z,20.45
2022-10-19T17:04:26.071Z,20.36
2022-10-19T17:06:54.869Z,19.98
2022-10-19T17:12:14.701Z,19.83
2022-10-19T17:14:43.858Z,19.85
2022-10-19T17:17:13.014Z,19.89
2022-10-19T17:19:43.301Z,19.88
2022-10-19T17:22:12.070Z,19.79
2022-10-19T17:24:41.293Z,20.00
2022-10-19T17:27:10.161Z,20.01
2022-10-19T17:29:38.980Z,19.92
2022-10-19T17:32:08.055Z,19.92
2022-10-19T17:34:36.880Z,19.92
2022-10-19T17:37:07.169Z,19.97
2022-10-19T17:39:35.998Z,19.86
2022-10-19T17:42:05.013Z,19.84
2022-10-19T17:44:34.087Z,19.12
2022-10-19T17:47:04.161Z,19.23
2022-10-19T17:49:33.049Z,18.75
2022-10-19T17:52:02.008Z,18.71
2022-10-19T17:54:43.397Z,18.91
2022-10-19T17:57:21.048Z,18.40
2022-10-19T17:59:52.948Z,18.39
2022-10-19T18:02:22.126Z,19.02
2022-10-19T18:04:50.877Z,19.54
2022-10-19T18:07:21.990Z,19.71
2022-10-19T18:09:52.434Z,19.39
2022-10-19T18:12:21.334Z,19.23
2022-10-19T18:14:50.294Z,19.57
2022-10-19T18:17:21.747Z,19.46
2022-10-19T18:19:52.932Z,19.12
2022-10-19T18:22:21.962Z,18.46
2022-10-19T18:24:52.126Z,18.36
2022-10-19T18:27:20.982Z,18.31
2022-10-19T18:29:49.754Z,18.94
2022-10-19T18:32:18.679Z,18.94
2022-10-19T18:34:47.699Z,18.84
2022-10-19T18:37:16.498Z,18.50
2022-10-19T18:39:45.379Z,18.46
2022-10-19T18:42:16.479Z,18.49
2022-10-19T18:44:47.138Z,17.46
2022-10-19T18:47:15.985Z,17.58
2022-10-19T18:49:44.802Z,17.66
2022-10-19T18:52:13.657Z,17.68
2022-10-19T18:54:42.462Z,17.05
2022-10-19T18:57:11.344Z,17.25
2022-10-19T18:59:41.518Z,17.50
2022-10-19T19:02:17.268Z,17.44
2022-10-19T19:04:51.861Z,17.18
2022-10-19T19:07:20.750Z,17.63
2022-10-19T19:09:51.007Z,17.87
2022-10-19T19:12:19.843Z,18.30
2022-10-19T19:14:57.492Z,18.26
2022-10-19T19:17:26.330Z,18.08
2022-10-19T19:19:55.166Z,17.56
2022-10-19T19:22:26.121Z,17.52
2022-10-19T19:24:55.109Z,16.63
2022-10-19T19:27:27.205Z,17.01
2022-10-19T19:30:03.825Z,17.15
2022-10-19T19:32:32.871Z,16.91
2022-10-19T19:35:02.060Z,16.16
2022-10-19T19:37:31.182Z,16.48
2022-10-19T19:40:00.037Z,16.40
2022-10-19T19:42:29.613Z,16.64
2022-10-19T19:44:58.417Z,16.29
2022-10-19T19:47:28.670Z,16.24
2022-10-19T19:49:57.491Z,15.83
2022-10-19T19:52:26.642Z,16.69
2022-10-19T19:54:55.565Z,16.88
2022-10-19T19:57:24.471Z,16.91
2022-10-19T19:59:53.236Z,16.75
2022-10-19T20:02:22.257Z,16.54
2022-10-19T20:04:52.675Z,16.98
2022-10-19T20:07:21.511Z,16.80
2022-10-19T20:09:50.305Z,16.77
2022-10-19T20:12:19.175Z,17.16
2022-10-19T20:14:47.951Z,17.28
2022-10-19T20:17:16.782Z,16.75
2022-10-19T20:19:45.617Z,16.88
2022-10-19T20:22:15.912Z,16.48
2022-10-19T20:24:44.774Z,17.12
2022-10-19T20:27:13.567Z,17.23
2022-10-19T20:29:42.430Z,17.35
2022-10-19T20:32:11.287Z,17.23
2022-10-19T20:34:40.115Z,16.93
2022-10-19T20:37:08.972Z,16.96
2022-10-19T20:39:39.321Z,17.57
2022-10-19T20:42:08.170Z,17.92
2022-10-19T20:44:36.989Z,17.60
2022-10-19T20:47:05.850Z,17.89
2022-10-19T20:49:35.427Z,17.20
2022-10-19T20:52:04.345Z,17.42
2022-10-19T20:54:33.311Z,17.42
2022-10-19T20:57:03.646Z,17.47
2022-10-19T20:59:33.393Z,17.63
2022-10-19T21:02:02.300Z,17.92
2022-10-19T21:04:31.257Z,17.45
2022-10-19T21:07:00.121Z,17.20
2022-10-19T21:09:29.650Z,16.94
2022-10-19T21:11:58.514Z,17.09
2022-10-19T21:14:30.471Z,17.19
2022-10-19T21:17:00.651Z,16.98
2022-10-19T21:19:30.975Z,16.18
2022-10-19T21:22:02.743Z,15.55
2022-10-19T21:24:34.461Z,15.33
2022-10-19T21:27:06.640Z,15.74
2022-10-19T21:29:37.174Z,15.70
2022-10-19T21:32:06.123Z,15.36
2022-10-19T21:34:35.129Z,14.73
2022-10-19T21:37:04.267Z,15.86
2022-10-19T21:39:33.069Z,16.49
2022-10-19T21:42:02.686Z,16.91
2022-10-19T21:44:31.494Z,17.03
2022-10-19T21:47:01.730Z,16.90
2022-10-19T21:49:30.585Z,17.14
2022-10-19T21:51:59.433Z,16.49
2022-10-19T21:54:29.215Z,16.63
2022-10-19T21:57:00.376Z,16.92
2022-10-19T21:59:29.797Z,17.14
2022-10-19T22:01:59.825Z,17.20
2022-10-19T22:04:30.446Z,17.24
2022-10-19T22:07:02.020Z,17.29
2022-10-19T22:09:30.889Z,17.13
2022-10-19T22:11:59.692Z,17.34
2022-10-19T22:14:28.515Z,17.07
2022-10-19T22:16:57.308Z,17.11
2022-10-19T22:19:26.347Z,17.01
2022-10-19T22:21:56.561Z,17.26
2022-10-19T22:24:25.379Z,17.10
2022-10-19T22:26:54.185Z,16.96
2022-10-19T22:29:23.028Z,17.31
2022-10-19T22:31:51.816Z,16.65
2022-10-19T22:34:20.707Z,16.85
2022-10-19T22:36:49.593Z,16.81
2022-10-19T22:39:19.892Z,16.76
2022-10-19T22:41:48.757Z,16.69
2022-10-19T22:44:17.578Z,16.95
2022-10-19T22:46:46.356Z,16.98
2022-10-19T22:49:15.129Z,16.98
2022-10-19T22:51:43.933Z,16.88
2022-10-19T22:54:12.933Z,16.90
2022-10-19T22:56:43.637Z,16.95
2022-10-19T22:59:12.499Z,16.88
2022-10-19T23:01:41.459Z,16.77
2022-10-19T23:04:10.331Z,16.89
2022-10-19T23:06:39.102Z,16.58
2022-10-19T23:09:08.064Z,16.52
2022-10-19T23:11:36.896Z,16.61
2022-10-19T23:14:07.143Z,16.38
2022-10-19T23:16:35.943Z,16.44
2022-10-19T23:19:04.853Z,16.53
2022-10-19T23:21:33.689Z,16.46
2022-10-19T23:24:02.532Z,16.49
2022-10-19T23:26:31.467Z,16.43
2022-10-19T23:29:00.341Z,16.58
2022-10-19T23:31:32.835Z,16.43
2022-10-19T23:34:01.976Z,16.20
2022-10-19T23:36:30.990Z,16.46
2022-10-19T23:38:59.945Z,16.51
2022-10-19T23:41:28.980Z,16.37
2022-10-19T23:43:57.850Z,16.41
2022-10-19T23:46:26.790Z,16.32
2022-10-19T23:48:57.105Z,16.44
2022-10-19T23:51:25.935Z,16.56
2022-10-19T23:53:55.204Z,16.47
2022-10-19T23:56:25.915Z,16.47
2022-10-19T23:58:55.566Z,16.67
